sensor_id;sensor_type;location;lat;lon;timestamp;temperature;humidity
4647;DHT22;2336;47.822;7.564;2024-03-08T00:01:15;1.10;99.90
4647;DHT22;2336;47.822;7.564;2024-03-08T00:03:44;1.10;99.90
4647;DHT22;2336;47.822;7.564;2024-03-08T00:06:11;1.20;99.90
4647;DHT22;2336;47.822;7.564;2024-03-08T00:08:39;1.20;99.90
4647;DHT22;2336;47.822;7.564;2024-03-08T00:11:06;1.20;99.90
4647;DHT22;2336;47.822;7.564;2024-03-08T00:13:33;1.10;99.90
4647;DHT22;2336;47.822;7.564;2024-03-08T00:16:00;1.10;99.90
4647;DHT22;2336;47.822;7.564;2024-03-08T00:18:27;1.00;99.90
4647;DHT22;2336;47.822;7.564;2024-03-08T00:20:55;1.00;99.90
4647;DHT22;2336;47.822;7.564;2024-03-08T00:23:22;0.90;99.90
4647;DHT22;2336;47.822;7.564;2024-03-08T00:25:50;0.90;99.90
4647;DHT22;2336;47.822;7.564;2024-03-08T00:28:17;0.90;99.90
4647;DHT22;2336;47.822;7.564;2024-03-08T00:30:44;1.10;99.90
4647;DHT22;2336;47.822;7.564;2024-03-08T00:33:12;1.20;99.90
4647;DHT22;2336;47.822;7.564;2024-03-08T00:35:38;1.20;99.90
4647;DHT22;2336;47.822;7.564;2024-03-08T00:38:05;1.20;99.90
4647;DHT22;2336;47.822;7.564;2024-03-08T00:40:31;1.10;99.90
4647;DHT22;2336;47.822;7.564;2024-03-08T00:43:00;1.00;99.90
4647;DHT22;2336;47.822;7.564;2024-03-08T00:45:29;1.00;99.90
4647;DHT22;2336;47.822;7.564;2024-03-08T00:47:56;1.00;99.90
4647;DHT22;2336;47.822;7.564;2024-03-08T00:50:23;0.90;99.90
4647;DHT22;2336;47.822;7.564;2024-03-08T00:52:49;0.80;99.90
4647;DHT22;2336;47.822;7.564;2024-03-08T00:55:16;0.70;99.90
4647;DHT22;2336;47.822;7.564;2024-03-08T00:57:43;0.70;99.90
4647;DHT22;2336;47.822;7.564;2024-03-08T01:00:12;0.70;99.90
4647;DHT22;2336;47.822;7.564;2024-03-08T01:02:39;0.70;99.90
4647;DHT22;2336;47.822;7.564;2024-03-08T01:05:06;0.70;99.90
4647;DHT22;2336;47.822;7.564;2024-03-08T01:07:34;0.70;99.90
4647;DHT22;2336;47.822;7.564;2024-03-08T01:10:01;0.70;99.90
4647;DHT22;2336;47.822;7.564;2024-03-08T01:12:28;0.60;99.90
4647;DHT22;2336;47.822;7.564;2024-03-08T01:14:55;0.60;99.90
4647;DHT22;2336;47.822;7.564;2024-03-08T01:17:24;0.60;99.90
4647;DHT22;2336;47.822;7.564;2024-03-08T01:19:51;0.60;99.90
4647;DHT22;2336;47.822;7.564;2024-03-08T01:22:18;0.60;99.90
4647;DHT22;2336;47.822;7.564;2024-03-08T01:24:45;0.50;99.90
4647;DHT22;2336;47.822;7.564;2024-03-08T01:27:12;0.50;99.90
4647;DHT22;2336;47.822;7.564;2024-03-08T01:29:39;0.50;99.90
4647;DHT22;2336;47.822;7.564;2024-03-08T01:32:06;0.40;99.90
4647;DHT22;2336;47.822;7.564;2024-03-08T01:34:34;0.40;99.90
4647;DHT22;2336;47.822;7.564;2024-03-08T01:37:00;0.40;99.90
4647;DHT22;2336;47.822;7.564;2024-03-08T01:39:27;0.40;99.90
4647;DHT22;2336;47.822;7.564;2024-03-08T01:41:54;0.40;99.90
4647;DHT22;2336;47.822;7.564;2024-03-08T01:44:21;0.40;99.90
4647;DHT22;2336;47.822;7.564;2024-03-08T01:46:48;0.30;99.90
4647;DHT22;2336;47.822;7.564;2024-03-08T01:49:17;0.30;99.90
4647;DHT22;2336;47.822;7.564;2024-03-08T01:51:48;0.30;99.90
4647;DHT22;2336;47.822;7.564;2024-03-08T01:54:17;0.30;99.90
4647;DHT22;2336;47.822;7.564;2024-03-08T01:56:46;0.30;99.90
4647;DHT22;2336;47.822;7.564;2024-03-08T01:59:13;0.30;99.90
4647;DHT22;2336;47.822;7.564;2024-03-08T02:01:40;0.30;99.90
4647;DHT22;2336;47.822;7.564;2024-03-08T02:04:07;0.30;99.90
4647;DHT22;2336;47.822;7.564;2024-03-08T02:06:34;0.20;99.90
4647;DHT22;2336;47.822;7.564;2024-03-08T02:09:02;0.20;99.90
4647;DHT22;2336;47.822;7.564;2024-03-08T02:11:31;0.20;99.90
4647;DHT22;2336;47.822;7.564;2024-03-08T02:13:58;0.20;99.90
4647;DHT22;2336;47.822;7.564;2024-03-08T02:16:25;0.10;99.90
4647;DHT22;2336;47.822;7.564;2024-03-08T02:18:52;0.20;99.90
4647;DHT22;2336;47.822;7.564;2024-03-08T02:21:20;0.20;99.90
4647;DHT22;2336;47.822;7.564;2024-03-08T02:23:47;0.20;99.90
4647;DHT22;2336;47.822;7.564;2024-03-08T02:26:14;0.20;99.90
4647;DHT22;2336;47.822;7.564;2024-03-08T02:28:41;0.20;99.90
4647;DHT22;2336;47.822;7.564;2024-03-08T02:31:09;0.10;99.90
4647;DHT22;2336;47.822;7.564;2024-03-08T02:33:36;0.10;99.90
4647;DHT22;2336;47.822;7.564;2024-03-08T02:36:03;0.10;99.90
4647;DHT22;2336;47.822;7.564;2024-03-08T02:38:33;0.10;99.90
4647;DHT22;2336;47.822;7.564;2024-03-08T02:41:00;0.00;99.90
4647;DHT22;2336;47.822;7.564;2024-03-08T02:43:26;0.00;99.90
4647;DHT22;2336;47.822;7.564;2024-03-08T02:45:52;0.00;99.90
4647;DHT22;2336;47.822;7.564;2024-03-08T02:48:19;0.00;99.90
4647;DHT22;2336;47.822;7.564;2024-03-08T02:50:47;0.00;99.90
4647;DHT22;2336;47.822;7.564;2024-03-08T02:53:16;0.00;99.90
4647;DHT22;2336;47.822;7.564;2024-03-08T02:55:45;0.00;99.90
4647;DHT22;2336;47.822;7.564;2024-03-08T02:58:12;-0.10;99.90
4647;DHT22;2336;47.822;7.564;2024-03-08T03:00:40;-0.10;99.90
4647;DHT22;2336;47.822;7.564;2024-03-08T03:03:06;-0.10;99.90
4647;DHT22;2336;47.822;7.564;2024-03-08T03:05:32;0.10;99.90
4647;DHT22;2336;47.822;7.564;2024-03-08T03:07:59;0.30;99.90
4647;DHT22;2336;47.822;7.564;2024-03-08T03:10:26;0.50;99.90
4647;DHT22;2336;47.822;7.564;2024-03-08T03:12:54;0.50;99.90
4647;DHT22;2336;47.822;7.564;2024-03-08T03:15:21;0.40;99.90
4647;DHT22;2336;47.822;7.564;2024-03-08T03:17:48;0.30;99.90
4647;DHT22;2336;47.822;7.564;2024-03-08T03:20:16;0.20;99.90
4647;DHT22;2336;47.822;7.564;2024-03-08T03:22:48;0.20;99.90
4647;DHT22;2336;47.822;7.564;2024-03-08T03:25:17;0.10;99.90
4647;DHT22;2336;47.822;7.564;2024-03-08T03:27:49;0.10;99.90
4647;DHT22;2336;47.822;7.564;2024-03-08T03:30:17;0.10;99.90
4647;DHT22;2336;47.822;7.564;2024-03-08T03:32:47;0.00;99.90
4647;DHT22;2336;47.822;7.564;2024-03-08T03:35:15;0.00;99.90
4647;DHT22;2336;47.822;7.564;2024-03-08T03:37:42;0.00;99.90
4647;DHT22;2336;47.822;7.564;2024-03-08T03:40:12;0.00;99.90
4647;DHT22;2336;47.822;7.564;2024-03-08T03:42:39;-0.10;99.90
4647;DHT22;2336;47.822;7.564;2024-03-08T03:45:06;-0.10;99.90
4647;DHT22;2336;47.822;7.564;2024-03-08T03:47:36;-0.10;99.90
4647;DHT22;2336;47.822;7.564;2024-03-08T03:50:05;-0.10;99.90
4647;DHT22;2336;47.822;7.564;2024-03-08T03:52:32;-0.10;99.90
4647;DHT22;2336;47.822;7.564;2024-03-08T03:54:58;-0.10;99.90
4647;DHT22;2336;47.822;7.564;2024-03-08T03:57:25;-0.10;99.90
4647;DHT22;2336;47.822;7.564;2024-03-08T03:59:52;-0.10;99.90
4647;DHT22;2336;47.822;7.564;2024-03-08T04:02:19;-0.20;99.90
4647;DHT22;2336;47.822;7.564;2024-03-08T04:04:47;-0.20;99.90
4647;DHT22;2336;47.822;7.564;2024-03-08T04:07:14;-0.20;99.90
4647;DHT22;2336;47.822;7.564;2024-03-08T04:09:42;-0.20;99.90
4647;DHT22;2336;47.822;7.564;2024-03-08T04:12:08;-0.30;99.90
4647;DHT22;2336;47.822;7.564;2024-03-08T04:14:35;-0.30;99.90
4647;DHT22;2336;47.822;7.564;2024-03-08T04:17:02;-0.30;99.90
4647;DHT22;2336;47.822;7.564;2024-03-08T04:19:29;-0.30;99.90
4647;DHT22;2336;47.822;7.564;2024-03-08T04:21:57;-0.30;99.90
4647;DHT22;2336;47.822;7.564;2024-03-08T04:24:24;-0.30;99.90
4647;DHT22;2336;47.822;7.564;2024-03-08T04:26:50;-0.30;99.90
4647;DHT22;2336;47.822;7.564;2024-03-08T04:29:18;-0.30;99.90
4647;DHT22;2336;47.822;7.564;2024-03-08T04:31:45;-0.30;99.90
4647;DHT22;2336;47.822;7.564;2024-03-08T04:34:12;-0.30;99.90
4647;DHT22;2336;47.822;7.564;2024-03-08T04:36:40;-0.40;99.90
4647;DHT22;2336;47.822;7.564;2024-03-08T04:39:08;-0.40;99.90
4647;DHT22;2336;47.822;7.564;2024-03-08T04:41:38;-0.40;99.90
4647;DHT22;2336;47.822;7.564;2024-03-08T04:44:05;-0.40;99.90
4647;DHT22;2336;47.822;7.564;2024-03-08T04:46:32;-0.40;99.90
4647;DHT22;2336;47.822;7.564;2024-03-08T04:49:00;-0.30;99.90
4647;DHT22;2336;47.822;7.564;2024-03-08T04:51:27;-0.30;99.90
4647;DHT22;2336;47.822;7.564;2024-03-08T04:53:54;-0.30;99.90
4647;DHT22;2336;47.822;7.564;2024-03-08T04:56:23;-0.30;99.90
4647;DHT22;2336;47.822;7.564;2024-03-08T04:58:51;-0.40;99.90
4647;DHT22;2336;47.822;7.564;2024-03-08T05:01:18;-0.40;99.90
4647;DHT22;2336;47.822;7.564;2024-03-08T05:03:44;-0.40;99.90
4647;DHT22;2336;47.822;7.564;2024-03-08T05:06:13;-0.40;99.90
4647;DHT22;2336;47.822;7.564;2024-03-08T05:08:39;-0.50;99.90
4647;DHT22;2336;47.822;7.564;2024-03-08T05:11:06;-0.50;99.90
4647;DHT22;2336;47.822;7.564;2024-03-08T05:13:34;-0.50;99.90
4647;DHT22;2336;47.822;7.564;2024-03-08T05:16:01;-0.50;99.90
4647;DHT22;2336;47.822;7.564;2024-03-08T05:18:28;-0.50;99.90
4647;DHT22;2336;47.822;7.564;2024-03-08T05:20:56;-0.50;99.90
4647;DHT22;2336;47.822;7.564;2024-03-08T05:23:23;-0.50;99.90
4647;DHT22;2336;47.822;7.564;2024-03-08T05:25:50;-0.50;99.90
4647;DHT22;2336;47.822;7.564;2024-03-08T05:28:16;-0.60;99.90
4647;DHT22;2336;47.822;7.564;2024-03-08T05:30:45;-0.60;99.90
4647;DHT22;2336;47.822;7.564;2024-03-08T05:33:11;-0.60;99.90
4647;DHT22;2336;47.822;7.564;2024-03-08T05:35:40;-0.60;99.90
4647;DHT22;2336;47.822;7.564;2024-03-08T05:38:06;-0.60;99.90
4647;DHT22;2336;47.822;7.564;2024-03-08T05:40:33;-0.60;99.90
4647;DHT22;2336;47.822;7.564;2024-03-08T05:43:00;-0.60;99.90
4647;DHT22;2336;47.822;7.564;2024-03-08T05:45:27;-0.60;99.90
4647;DHT22;2336;47.822;7.564;2024-03-08T05:47:55;-0.60;99.90
4647;DHT22;2336;47.822;7.564;2024-03-08T05:50:22;-0.60;99.90
4647;DHT22;2336;47.822;7.564;2024-03-08T05:52:48;-0.50;99.90
4647;DHT22;2336;47.822;7.564;2024-03-08T05:55:15;-0.50;99.90
4647;DHT22;2336;47.822;7.564;2024-03-08T05:57:42;-0.40;99.90
4647;DHT22;2336;47.822;7.564;2024-03-08T06:00:10;-0.40;99.90
4647;DHT22;2336;47.822;7.564;2024-03-08T06:02:37;-0.40;99.90
4647;DHT22;2336;47.822;7.564;2024-03-08T06:05:09;-0.50;99.90
4647;DHT22;2336;47.822;7.564;2024-03-08T06:07:36;-0.50;99.90
4647;DHT22;2336;47.822;7.564;2024-03-08T06:10:07;-0.50;99.90
4647;DHT22;2336;47.822;7.564;2024-03-08T06:12:35;-0.50;99.90
4647;DHT22;2336;47.822;7.564;2024-03-08T06:15:06;-0.50;99.90
4647;DHT22;2336;47.822;7.564;2024-03-08T06:17:33;-0.40;99.90
4647;DHT22;2336;47.822;7.564;2024-03-08T06:20:00;-0.40;99.90
4647;DHT22;2336;47.822;7.564;2024-03-08T06:22:28;-0.40;99.90
4647;DHT22;2336;47.822;7.564;2024-03-08T06:24:55;-0.40;99.90
4647;DHT22;2336;47.822;7.564;2024-03-08T06:27:22;-0.40;99.90
4647;DHT22;2336;47.822;7.564;2024-03-08T06:29:49;-0.40;99.90
4647;DHT22;2336;47.822;7.564;2024-03-08T06:32:16;-0.30;99.90
4647;DHT22;2336;47.822;7.564;2024-03-08T06:34:42;-0.30;99.90
4647;DHT22;2336;47.822;7.564;2024-03-08T06:37:09;-0.30;99.90
4647;DHT22;2336;47.822;7.564;2024-03-08T06:39:37;-0.30;99.90
4647;DHT22;2336;47.822;7.564;2024-03-08T06:42:04;-0.30;99.90
4647;DHT22;2336;47.822;7.564;2024-03-08T06:44:31;-0.30;99.90
4647;DHT22;2336;47.822;7.564;2024-03-08T06:46:58;-0.30;99.90
4647;DHT22;2336;47.822;7.564;2024-03-08T06:49:25;-0.20;99.90
4647;DHT22;2336;47.822;7.564;2024-03-08T06:51:52;-0.10;99.90
4647;DHT22;2336;47.822;7.564;2024-03-08T06:54:19;-0.10;99.90
4647;DHT22;2336;47.822;7.564;2024-03-08T06:56:47;0.00;99.90
4647;DHT22;2336;47.822;7.564;2024-03-08T06:59:14;0.00;99.90
4647;DHT22;2336;47.822;7.564;2024-03-08T07:01:43;0.10;99.90
4647;DHT22;2336;47.822;7.564;2024-03-08T07:04:10;0.10;99.90
4647;DHT22;2336;47.822;7.564;2024-03-08T07:06:37;0.20;99.90
4647;DHT22;2336;47.822;7.564;2024-03-08T07:09:04;0.20;99.90
4647;DHT22;2336;47.822;7.564;2024-03-08T07:11:30;0.20;99.90
4647;DHT22;2336;47.822;7.564;2024-03-08T07:13:58;0.30;99.90
4647;DHT22;2336;47.822;7.564;2024-03-08T07:16:28;0.40;99.90
4647;DHT22;2336;47.822;7.564;2024-03-08T07:18:55;0.50;99.90
4647;DHT22;2336;47.822;7.564;2024-03-08T07:21:22;0.50;99.90
4647;DHT22;2336;47.822;7.564;2024-03-08T07:23:50;0.60;99.90
4647;DHT22;2336;47.822;7.564;2024-03-08T07:26:36;0.70;99.90
4647;DHT22;2336;47.822;7.564;2024-03-08T07:29:05;0.70;99.90
4647;DHT22;2336;47.822;7.564;2024-03-08T07:31:31;0.80;99.90
4647;DHT22;2336;47.822;7.564;2024-03-08T07:34:16;0.90;99.90
4647;DHT22;2336;47.822;7.564;2024-03-08T07:36:42;1.00;99.90
4647;DHT22;2336;47.822;7.564;2024-03-08T07:39:09;1.00;99.90
4647;DHT22;2336;47.822;7.564;2024-03-08T07:41:37;1.10;99.90
4647;DHT22;2336;47.822;7.564;2024-03-08T07:44:06;1.20;99.90
4647;DHT22;2336;47.822;7.564;2024-03-08T07:46:33;1.30;99.90
4647;DHT22;2336;47.822;7.564;2024-03-08T07:49:00;1.40;99.90
4647;DHT22;2336;47.822;7.564;2024-03-08T07:51:27;1.50;99.90
4647;DHT22;2336;47.822;7.564;2024-03-08T07:53:54;1.50;99.90
4647;DHT22;2336;47.822;7.564;2024-03-08T07:56:21;1.60;99.90
4647;DHT22;2336;47.822;7.564;2024-03-08T07:58:48;1.70;99.90
4647;DHT22;2336;47.822;7.564;2024-03-08T08:01:19;1.80;99.90
4647;DHT22;2336;47.822;7.564;2024-03-08T08:03:46;1.80;99.90
4647;DHT22;2336;47.822;7.564;2024-03-08T08:06:15;2.00;99.90
4647;DHT22;2336;47.822;7.564;2024-03-08T08:08:42;2.00;99.90
4647;DHT22;2336;47.822;7.564;2024-03-08T08:11:09;2.10;99.90
4647;DHT22;2336;47.822;7.564;2024-03-08T08:13:36;2.20;99.90
4647;DHT22;2336;47.822;7.564;2024-03-08T08:16:04;2.30;99.90
4647;DHT22;2336;47.822;7.564;2024-03-08T08:18:33;2.40;99.90
4647;DHT22;2336;47.822;7.564;2024-03-08T08:21:01;2.40;99.90
4647;DHT22;2336;47.822;7.564;2024-03-08T08:23:28;2.50;99.90
4647;DHT22;2336;47.822;7.564;2024-03-08T08:25:55;2.60;99.90
4647;DHT22;2336;47.822;7.564;2024-03-08T08:28:21;2.70;99.90
4647;DHT22;2336;47.822;7.564;2024-03-08T08:30:48;2.80;99.90
4647;DHT22;2336;47.822;7.564;2024-03-08T08:33:15;2.90;99.90
4647;DHT22;2336;47.822;7.564;2024-03-08T08:35:43;3.00;99.90
4647;DHT22;2336;47.822;7.564;2024-03-08T08:38:10;3.00;99.90
4647;DHT22;2336;47.822;7.564;2024-03-08T08:40:37;3.10;99.90
4647;DHT22;2336;47.822;7.564;2024-03-08T08:43:04;3.10;99.90
4647;DHT22;2336;47.822;7.564;2024-03-08T08:45:31;3.20;99.90
4647;DHT22;2336;47.822;7.564;2024-03-08T08:47:59;3.30;99.90
4647;DHT22;2336;47.822;7.564;2024-03-08T08:50:26;3.30;99.90
4647;DHT22;2336;47.822;7.564;2024-03-08T08:52:55;3.40;99.90
4647;DHT22;2336;47.822;7.564;2024-03-08T08:55:22;3.50;99.90
4647;DHT22;2336;47.822;7.564;2024-03-08T08:57:51;3.50;99.90
4647;DHT22;2336;47.822;7.564;2024-03-08T09:00:18;3.60;99.90
4647;DHT22;2336;47.822;7.564;2024-03-08T09:02:46;3.70;99.90
4647;DHT22;2336;47.822;7.564;2024-03-08T09:05:13;3.80;99.90
4647;DHT22;2336;47.822;7.564;2024-03-08T09:07:42;3.90;99.90
4647;DHT22;2336;47.822;7.564;2024-03-08T09:10:11;3.90;99.90
4647;DHT22;2336;47.822;7.564;2024-03-08T09:12:40;4.00;99.90
4647;DHT22;2336;47.822;7.564;2024-03-08T09:15:07;4.00;99.90
4647;DHT22;2336;47.822;7.564;2024-03-08T09:17:36;4.10;99.90
4647;DHT22;2336;47.822;7.564;2024-03-08T09:20:06;4.10;99.90
4647;DHT22;2336;47.822;7.564;2024-03-08T09:22:33;4.30;99.90
4647;DHT22;2336;47.822;7.564;2024-03-08T09:24:58;4.30;99.90
4647;DHT22;2336;47.822;7.564;2024-03-08T09:27:26;4.40;99.90
4647;DHT22;2336;47.822;7.564;2024-03-08T09:29:53;4.40;99.90
4647;DHT22;2336;47.822;7.564;2024-03-08T09:32:21;4.60;99.90
4647;DHT22;2336;47.822;7.564;2024-03-08T09:34:48;4.70;99.90
4647;DHT22;2336;47.822;7.564;2024-03-08T09:37:15;4.80;99.90
4647;DHT22;2336;47.822;7.564;2024-03-08T09:39:43;5.10;99.90
4647;DHT22;2336;47.822;7.564;2024-03-08T09:42:10;5.30;99.90
4647;DHT22;2336;47.822;7.564;2024-03-08T09:44:44;5.40;99.90
4647;DHT22;2336;47.822;7.564;2024-03-08T09:47:13;5.60;99.90
4647;DHT22;2336;47.822;7.564;2024-03-08T09:49:40;5.80;99.90
4647;DHT22;2336;47.822;7.564;2024-03-08T09:52:09;5.80;99.90
4647;DHT22;2336;47.822;7.564;2024-03-08T09:54:37;5.80;99.90
4647;DHT22;2336;47.822;7.564;2024-03-08T09:57:04;5.70;99.90
4647;DHT22;2336;47.822;7.564;2024-03-08T09:59:33;5.80;99.90
4647;DHT22;2336;47.822;7.564;2024-03-08T10:02:16;5.90;99.90
4647;DHT22;2336;47.822;7.564;2024-03-08T10:04:44;5.90;99.90
4647;DHT22;2336;47.822;7.564;2024-03-08T10:07:12;5.90;99.90
4647;DHT22;2336;47.822;7.564;2024-03-08T10:09:40;5.80;99.90
4647;DHT22;2336;47.822;7.564;2024-03-08T10:12:08;5.80;99.90
4647;DHT22;2336;47.822;7.564;2024-03-08T10:14:39;6.00;99.90
4647;DHT22;2336;47.822;7.564;2024-03-08T10:17:07;6.40;99.90
4647;DHT22;2336;47.822;7.564;2024-03-08T10:19:35;6.80;99.90
4647;DHT22;2336;47.822;7.564;2024-03-08T10:22:02;7.00;99.90
4647;DHT22;2336;47.822;7.564;2024-03-08T10:24:30;7.00;99.90
4647;DHT22;2336;47.822;7.564;2024-03-08T10:26:59;7.00;99.90
4647;DHT22;2336;47.822;7.564;2024-03-08T10:29:27;7.10;99.90
4647;DHT22;2336;47.822;7.564;2024-03-08T10:31:54;7.10;99.90
4647;DHT22;2336;47.822;7.564;2024-03-08T10:34:22;7.00;99.90
4647;DHT22;2336;47.822;7.564;2024-03-08T10:36:52;6.90;99.90
4647;DHT22;2336;47.822;7.564;2024-03-08T10:39:22;6.90;99.90
4647;DHT22;2336;47.822;7.564;2024-03-08T10:41:53;6.70;99.90
4647;DHT22;2336;47.822;7.564;2024-03-08T10:44:36;6.60;99.90
4647;DHT22;2336;47.822;7.564;2024-03-08T10:47:14;6.70;99.90
4647;DHT22;2336;47.822;7.564;2024-03-08T10:49:50;6.90;99.90
4647;DHT22;2336;47.822;7.564;2024-03-08T10:52:19;6.80;99.90
4647;DHT22;2336;47.822;7.564;2024-03-08T10:54:47;7.00;99.90
4647;DHT22;2336;47.822;7.564;2024-03-08T10:57:17;7.10;99.90
4647;DHT22;2336;47.822;7.564;2024-03-08T10:59:46;7.30;99.90
4647;DHT22;2336;47.822;7.564;2024-03-08T11:02:16;7.40;99.90
4647;DHT22;2336;47.822;7.564;2024-03-08T11:04:48;7.40;99.90
4647;DHT22;2336;47.822;7.564;2024-03-08T11:07:15;7.70;99.90
4647;DHT22;2336;47.822;7.564;2024-03-08T11:09:47;7.70;99.90
4647;DHT22;2336;47.822;7.564;2024-03-08T11:12:22;7.70;99.90
4647;DHT22;2336;47.822;7.564;2024-03-08T11:14:51;7.60;99.90
4647;DHT22;2336;47.822;7.564;2024-03-08T11:17:21;7.70;99.90
4647;DHT22;2336;47.822;7.564;2024-03-08T11:19:55;7.80;99.90
4647;DHT22;2336;47.822;7.564;2024-03-08T11:22:26;7.80;99.90
4647;DHT22;2336;47.822;7.564;2024-03-08T11:25:02;7.90;99.90
4647;DHT22;2336;47.822;7.564;2024-03-08T11:27:34;7.90;99.90
4647;DHT22;2336;47.822;7.564;2024-03-08T11:30:03;8.00;99.90
4647;DHT22;2336;47.822;7.564;2024-03-08T11:32:37;8.10;99.90
4647;DHT22;2336;47.822;7.564;2024-03-08T11:35:06;8.00;99.90
4647;DHT22;2336;47.822;7.564;2024-03-08T11:37:34;8.00;99.90
4647;DHT22;2336;47.822;7.564;2024-03-08T11:40:11;8.10;99.90
4647;DHT22;2336;47.822;7.564;2024-03-08T11:42:40;8.20;99.90
4647;DHT22;2336;47.822;7.564;2024-03-08T11:45:08;8.40;99.90
4647;DHT22;2336;47.822;7.564;2024-03-08T11:47:36;8.60;99.90
4647;DHT22;2336;47.822;7.564;2024-03-08T11:50:06;8.90;99.90
4647;DHT22;2336;47.822;7.564;2024-03-08T11:52:36;9.00;99.90
4647;DHT22;2336;47.822;7.564;2024-03-08T11:55:05;8.90;99.90
4647;DHT22;2336;47.822;7.564;2024-03-08T11:57:33;8.90;99.90
4647;DHT22;2336;47.822;7.564;2024-03-08T12:00:00;9.00;99.90
4647;DHT22;2336;47.822;7.564;2024-03-08T12:02:32;8.80;99.90
4647;DHT22;2336;47.822;7.564;2024-03-08T12:05:01;9.10;99.90
4647;DHT22;2336;47.822;7.564;2024-03-08T12:07:28;9.10;99.90
4647;DHT22;2336;47.822;7.564;2024-03-08T12:10:18;9.30;99.90
4647;DHT22;2336;47.822;7.564;2024-03-08T12:12:46;9.50;99.90
4647;DHT22;2336;47.822;7.564;2024-03-08T12:15:13;9.70;99.90
4647;DHT22;2336;47.822;7.564;2024-03-08T12:17:41;9.80;99.90
4647;DHT22;2336;47.822;7.564;2024-03-08T12:20:14;10.00;99.90
4647;DHT22;2336;47.822;7.564;2024-03-08T12:22:42;10.20;99.90
4647;DHT22;2336;47.822;7.564;2024-03-08T12:25:09;10.10;99.90
4647;DHT22;2336;47.822;7.564;2024-03-08T12:27:38;10.00;99.90
4647;DHT22;2336;47.822;7.564;2024-03-08T12:30:22;10.30;99.90
4647;DHT22;2336;47.822;7.564;2024-03-08T12:32:54;10.20;99.90
4647;DHT22;2336;47.822;7.564;2024-03-08T12:35:22;10.10;99.90
4647;DHT22;2336;47.822;7.564;2024-03-08T12:37:51;10.30;99.90
4647;DHT22;2336;47.822;7.564;2024-03-08T12:40:19;10.30;99.90
4647;DHT22;2336;47.822;7.564;2024-03-08T12:42:48;10.40;99.90
4647;DHT22;2336;47.822;7.564;2024-03-08T12:45:15;10.50;99.90
4647;DHT22;2336;47.822;7.564;2024-03-08T12:47:41;10.70;99.90
4647;DHT22;2336;47.822;7.564;2024-03-08T12:50:09;10.40;99.90
4647;DHT22;2336;47.822;7.564;2024-03-08T12:52:37;10.30;99.90
4647;DHT22;2336;47.822;7.564;2024-03-08T12:55:04;10.50;99.90
4647;DHT22;2336;47.822;7.564;2024-03-08T12:57:33;10.40;99.90
4647;DHT22;2336;47.822;7.564;2024-03-08T13:00:03;10.10;99.90
4647;DHT22;2336;47.822;7.564;2024-03-08T13:02:30;10.10;99.90
4647;DHT22;2336;47.822;7.564;2024-03-08T13:04:58;10.10;99.90
4647;DHT22;2336;47.822;7.564;2024-03-08T13:07:25;9.90;99.90
4647;DHT22;2336;47.822;7.564;2024-03-08T13:09:52;9.80;99.90
4647;DHT22;2336;47.822;7.564;2024-03-08T13:12:20;9.70;99.90
4647;DHT22;2336;47.822;7.564;2024-03-08T13:14:47;9.90;99.90
4647;DHT22;2336;47.822;7.564;2024-03-08T13:17:15;9.90;99.90
4647;DHT22;2336;47.822;7.564;2024-03-08T13:19:43;9.80;99.90
4647;DHT22;2336;47.822;7.564;2024-03-08T13:22:10;9.80;99.90
4647;DHT22;2336;47.822;7.564;2024-03-08T13:24:38;9.90;99.90
4647;DHT22;2336;47.822;7.564;2024-03-08T13:27:07;10.00;99.90
4647;DHT22;2336;47.822;7.564;2024-03-08T13:29:45;10.10;99.90
4647;DHT22;2336;47.822;7.564;2024-03-08T13:32:14;10.20;99.90
4647;DHT22;2336;47.822;7.564;2024-03-08T13:34:41;10.30;99.90
4647;DHT22;2336;47.822;7.564;2024-03-08T13:37:08;10.30;99.90
4647;DHT22;2336;47.822;7.564;2024-03-08T13:39:37;10.30;99.90
4647;DHT22;2336;47.822;7.564;2024-03-08T13:42:09;10.40;99.90
4647;DHT22;2336;47.822;7.564;2024-03-08T13:44:39;10.30;99.90
4647;DHT22;2336;47.822;7.564;2024-03-08T13:47:06;10.20;99.90
4647;DHT22;2336;47.822;7.564;2024-03-08T13:49:34;10.10;99.90
4647;DHT22;2336;47.822;7.564;2024-03-08T13:52:02;10.10;99.90
4647;DHT22;2336;47.822;7.564;2024-03-08T13:54:29;10.30;99.90
4647;DHT22;2336;47.822;7.564;2024-03-08T13:56:57;10.30;99.90
4647;DHT22;2336;47.822;7.564;2024-03-08T13:59:24;10.40;99.90
4647;DHT22;2336;47.822;7.564;2024-03-08T14:01:55;10.60;99.90
4647;DHT22;2336;47.822;7.564;2024-03-08T14:04:22;10.70;99.90
4647;DHT22;2336;47.822;7.564;2024-03-08T14:06:51;10.80;99.90
4647;DHT22;2336;47.822;7.564;2024-03-08T14:09:22;10.90;99.90
4647;DHT22;2336;47.822;7.564;2024-03-08T14:11:50;11.00;99.90
4647;DHT22;2336;47.822;7.564;2024-03-08T14:14:19;11.00;99.90
4647;DHT22;2336;47.822;7.564;2024-03-08T14:16:46;11.10;99.90
4647;DHT22;2336;47.822;7.564;2024-03-08T14:19:13;11.20;99.90
4647;DHT22;2336;47.822;7.564;2024-03-08T14:21:40;11.20;99.90
4647;DHT22;2336;47.822;7.564;2024-03-08T14:24:09;11.60;99.90
4647;DHT22;2336;47.822;7.564;2024-03-08T14:26:35;11.80;99.90
4647;DHT22;2336;47.822;7.564;2024-03-08T14:29:04;11.60;99.90
4647;DHT22;2336;47.822;7.564;2024-03-08T14:31:31;11.50;99.90
4647;DHT22;2336;47.822;7.564;2024-03-08T14:33:58;11.50;99.90
4647;DHT22;2336;47.822;7.564;2024-03-08T14:36:25;11.20;99.90
4647;DHT22;2336;47.822;7.564;2024-03-08T14:38:52;10.90;99.90
4647;DHT22;2336;47.822;7.564;2024-03-08T14:41:20;11.00;99.90
4647;DHT22;2336;47.822;7.564;2024-03-08T14:43:47;11.00;99.90
4647;DHT22;2336;47.822;7.564;2024-03-08T14:46:14;11.10;99.90
4647;DHT22;2336;47.822;7.564;2024-03-08T14:48:43;11.40;99.90
4647;DHT22;2336;47.822;7.564;2024-03-08T14:51:09;11.30;99.90
4647;DHT22;2336;47.822;7.564;2024-03-08T14:53:40;11.30;99.90
4647;DHT22;2336;47.822;7.564;2024-03-08T14:56:08;11.30;99.90
4647;DHT22;2336;47.822;7.564;2024-03-08T14:58:36;11.20;99.90
4647;DHT22;2336;47.822;7.564;2024-03-08T15:01:04;11.30;99.90
4647;DHT22;2336;47.822;7.564;2024-03-08T15:03:35;11.40;99.90
4647;DHT22;2336;47.822;7.564;2024-03-08T15:06:03;11.40;99.90
4647;DHT22;2336;47.822;7.564;2024-03-08T15:08:34;11.50;99.90
4647;DHT22;2336;47.822;7.564;2024-03-08T15:11:00;11.40;99.90
4647;DHT22;2336;47.822;7.564;2024-03-08T15:13:30;11.40;99.90
4647;DHT22;2336;47.822;7.564;2024-03-08T15:16:06;11.50;99.90
4647;DHT22;2336;47.822;7.564;2024-03-08T15:18:34;11.60;99.90
4647;DHT22;2336;47.822;7.564;2024-03-08T15:21:03;11.70;99.90
4647;DHT22;2336;47.822;7.564;2024-03-08T15:23:32;11.70;99.90
4647;DHT22;2336;47.822;7.564;2024-03-08T15:25:59;11.70;99.90
4647;DHT22;2336;47.822;7.564;2024-03-08T15:28:27;11.40;99.90
4647;DHT22;2336;47.822;7.564;2024-03-08T15:31:01;11.40;99.90
4647;DHT22;2336;47.822;7.564;2024-03-08T15:33:33;11.30;99.90
4647;DHT22;2336;47.822;7.564;2024-03-08T15:36:00;11.20;99.90
4647;DHT22;2336;47.822;7.564;2024-03-08T15:38:33;11.10;99.90
4647;DHT22;2336;47.822;7.564;2024-03-08T15:40:59;11.00;99.90
4647;DHT22;2336;47.822;7.564;2024-03-08T15:43:27;11.00;99.90
4647;DHT22;2336;47.822;7.564;2024-03-08T15:45:54;10.80;99.90
4647;DHT22;2336;47.822;7.564;2024-03-08T15:48:23;10.80;99.90
4647;DHT22;2336;47.822;7.564;2024-03-08T15:50:51;10.70;99.90
4647;DHT22;2336;47.822;7.564;2024-03-08T15:53:18;10.60;99.90
4647;DHT22;2336;47.822;7.564;2024-03-08T15:55:45;10.60;99.90
4647;DHT22;2336;47.822;7.564;2024-03-08T15:58:12;10.70;99.90
4647;DHT22;2336;47.822;7.564;2024-03-08T16:00:40;10.60;99.90
4647;DHT22;2336;47.822;7.564;2024-03-08T16:03:13;10.60;99.90
4647;DHT22;2336;47.822;7.564;2024-03-08T16:05:40;10.60;99.90
4647;DHT22;2336;47.822;7.564;2024-03-08T16:08:11;10.60;99.90
4647;DHT22;2336;47.822;7.564;2024-03-08T16:10:42;10.60;99.90
4647;DHT22;2336;47.822;7.564;2024-03-08T16:13:12;10.60;99.90
4647;DHT22;2336;47.822;7.564;2024-03-08T16:15:38;10.50;99.90